sensor_id;sensor_type;location;lat;lon;timestamp;P1;durP1;ratioP1;P2;durP2;ratioP2
47483;SDS011;54076;50.322;18.650;2023-06-10T00:01:45;14.90;;;9.00;;
47483;SDS011;54076;50.322;18.650;2023-06-10T00:06:49;14.40;;;9.30;;
47483;SDS011;54076;50.322;18.650;2023-06-10T00:11:51;14.60;;;9.10;;
47483;SDS011;54076;50.322;18.650;2023-06-10T00:16:52;15.10;;;9.40;;
47483;SDS011;54076;50.322;18.650;2023-06-10T00:21:53;14.10;;;9.50;;
47483;SDS011;54076;50.322;18.650;2023-06-10T00:26:54;14.60;;;10.00;;
47483;SDS011;54076;50.322;18.650;2023-06-10T00:31:55;13.70;;;9.10;;
47483;SDS011;54076;50.322;18.650;2023-06-10T00:36:58;14.70;;;9.60;;
47483;SDS011;54076;50.322;18.650;2023-06-10T00:41:59;15.70;;;9.50;;
47483;SDS011;54076;50.322;18.650;2023-06-10T00:47:00;16.20;;;9.90;;
47483;SDS011;54076;50.322;18.650;2023-06-10T00:52:02;17.40;;;10.70;;
47483;SDS011;54076;50.322;18.650;2023-06-10T00:57:05;20.20;;;11.50;;
47483;SDS011;54076;50.322;18.650;2023-06-10T01:02:06;18.10;;;10.30;;
47483;SDS011;54076;50.322;18.650;2023-06-10T01:12:55;15.40;;;10.60;;
47483;SDS011;54076;50.322;18.650;2023-06-10T01:18:04;17.40;;;10.10;;
47483;SDS011;54076;50.322;18.650;2023-06-10T01:23:12;18.40;;;9.70;;
47483;SDS011;54076;50.322;18.650;2023-06-10T01:28:36;17.40;;;10.90;;
47483;SDS011;54076;50.322;18.650;2023-06-10T01:33:46;20.10;;;11.00;;
47483;SDS011;54076;50.322;18.650;2023-06-10T01:38:50;20.00;;;11.60;;
47483;SDS011;54076;50.322;18.650;2023-06-10T01:43:54;19.60;;;11.50;;
47483;SDS011;54076;50.322;18.650;2023-06-10T01:48:56;19.60;;;11.60;;
47483;SDS011;54076;50.322;18.650;2023-06-10T01:53:56;17.30;;;11.50;;
47483;SDS011;54076;50.322;18.650;2023-06-10T01:58:58;16.00;;;10.50;;
47483;SDS011;54076;50.322;18.650;2023-06-10T02:03:59;16.20;;;10.30;;
47483;SDS011;54076;50.322;18.650;2023-06-10T02:09:01;14.20;;;10.40;;
47483;SDS011;54076;50.322;18.650;2023-06-10T02:14:02;16.50;;;10.20;;
47483;SDS011;54076;50.322;18.650;2023-06-10T02:19:03;15.10;;;10.20;;
47483;SDS011;54076;50.322;18.650;2023-06-10T02:24:07;16.10;;;10.30;;
47483;SDS011;54076;50.322;18.650;2023-06-10T02:29:08;16.40;;;10.40;;
47483;SDS011;54076;50.322;18.650;2023-06-10T02:34:09;15.20;;;10.10;;
47483;SDS011;54076;50.322;18.650;2023-06-10T02:39:10;17.40;;;11.40;;
47483;SDS011;54076;50.322;18.650;2023-06-10T02:44:11;17.10;;;10.70;;
47483;SDS011;54076;50.322;18.650;2023-06-10T02:49:12;15.20;;;10.30;;
47483;SDS011;54076;50.322;18.650;2023-06-10T02:54:13;18.40;;;11.00;;
47483;SDS011;54076;50.322;18.650;2023-06-10T02:59:14;16.30;;;10.20;;
47483;SDS011;54076;50.322;18.650;2023-06-10T03:04:15;15.50;;;10.20;;
47483;SDS011;54076;50.322;18.650;2023-06-10T03:09:16;18.40;;;11.10;;
47483;SDS011;54076;50.322;18.650;2023-06-10T03:14:17;16.10;;;11.10;;
47483;SDS011;54076;50.322;18.650;2023-06-10T03:19:18;16.70;;;10.30;;
47483;SDS011;54076;50.322;18.650;2023-06-10T03:24:21;15.90;;;11.10;;
47483;SDS011;54076;50.322;18.650;2023-06-10T03:29:22;18.90;;;10.40;;
47483;SDS011;54076;50.322;18.650;2023-06-10T03:34:23;18.00;;;10.50;;
47483;SDS011;54076;50.322;18.650;2023-06-10T03:39:25;20.80;;;10.90;;
47483;SDS011;54076;50.322;18.650;2023-06-10T03:44:26;16.90;;;10.10;;
47483;SDS011;54076;50.322;18.650;2023-06-10T03:49:27;17.80;;;11.80;;
47483;SDS011;54076;50.322;18.650;2023-06-10T03:54:29;15.60;;;10.40;;
47483;SDS011;54076;50.322;18.650;2023-06-10T03:59:32;15.70;;;10.30;;
47483;SDS011;54076;50.322;18.650;2023-06-10T04:04:33;15.90;;;11.50;;
47483;SDS011;54076;50.322;18.650;2023-06-10T04:09:34;16.40;;;11.00;;
47483;SDS011;54076;50.322;18.650;2023-06-10T04:14:36;15.10;;;10.40;;
47483;SDS011;54076;50.322;18.650;2023-06-10T04:19:38;18.20;;;10.60;;
47483;SDS011;54076;50.322;18.650;2023-06-10T04:24:39;16.30;;;10.90;;
47483;SDS011;54076;50.322;18.650;2023-06-10T04:29:40;17.20;;;10.40;;
47483;SDS011;54076;50.322;18.650;2023-06-10T04:34:41;15.00;;;10.30;;
47483;SDS011;54076;50.322;18.650;2023-06-10T04:39:43;15.50;;;9.90;;
47483;SDS011;54076;50.322;18.650;2023-06-10T04:44:44;17.50;;;9.30;;
47483;SDS011;54076;50.322;18.650;2023-06-10T04:49:45;15.30;;;9.40;;
47483;SDS011;54076;50.322;18.650;2023-06-10T04:54:46;16.70;;;9.60;;
47483;SDS011;54076;50.322;18.650;2023-06-10T04:59:47;15.30;;;9.10;;
47483;SDS011;54076;50.322;18.650;2023-06-10T05:04:48;15.10;;;9.00;;
47483;SDS011;54076;50.322;18.650;2023-06-10T05:09:49;15.60;;;10.00;;
47483;SDS011;54076;50.322;18.650;2023-06-10T05:14:50;15.90;;;8.70;;
47483;SDS011;54076;50.322;18.650;2023-06-10T05:19:51;13.30;;;9.10;;
47483;SDS011;54076;50.322;18.650;2023-06-10T05:24:53;13.30;;;9.40;;
47483;SDS011;54076;50.322;18.650;2023-06-10T05:29:54;14.20;;;9.10;;
47483;SDS011;54076;50.322;18.650;2023-06-10T05:34:55;16.10;;;8.90;;
47483;SDS011;54076;50.322;18.650;2023-06-10T05:39:56;13.90;;;8.70;;
47483;SDS011;54076;50.322;18.650;2023-06-10T05:44:57;14.70;;;8.50;;
47483;SDS011;54076;50.322;18.650;2023-06-10T05:49:58;12.10;;;7.60;;
47483;SDS011;54076;50.322;18.650;2023-06-10T05:54:59;18.40;;;8.30;;
47483;SDS011;54076;50.322;18.650;2023-06-10T06:00:00;12.90;;;7.90;;
47483;SDS011;54076;50.322;18.650;2023-06-10T06:05:01;13.80;;;7.90;;
47483;SDS011;54076;50.322;18.650;2023-06-10T06:10:02;12.90;;;7.70;;
47483;SDS011;54076;50.322;18.650;2023-06-10T06:15:04;12.80;;;7.50;;
47483;SDS011;54076;50.322;18.650;2023-06-10T06:20:06;11.20;;;7.40;;
47483;SDS011;54076;50.322;18.650;2023-06-10T06:25:07;14.20;;;7.90;;
47483;SDS011;54076;50.322;18.650;2023-06-10T06:30:09;12.10;;;7.00;;
47483;SDS011;54076;50.322;18.650;2023-06-10T06:35:10;10.40;;;7.20;;
47483;SDS011;54076;50.322;18.650;2023-06-10T06:40:12;15.30;;;7.60;;
47483;SDS011;54076;50.322;18.650;2023-06-10T06:45:13;11.30;;;7.20;;
47483;SDS011;54076;50.322;18.650;2023-06-10T06:50:14;11.70;;;7.80;;
47483;SDS011;54076;50.322;18.650;2023-06-10T06:55:15;13.80;;;7.70;;
47483;SDS011;54076;50.322;18.650;2023-06-10T07:00:17;11.70;;;7.50;;
47483;SDS011;54076;50.322;18.650;2023-06-10T07:05:18;11.20;;;7.20;;
47483;SDS011;54076;50.322;18.650;2023-06-10T07:10:19;19.10;;;6.80;;
47483;SDS011;54076;50.322;18.650;2023-06-10T07:15:22;13.30;;;6.90;;
47483;SDS011;54076;50.322;18.650;2023-06-10T07:20:23;13.10;;;7.10;;
47483;SDS011;54076;50.322;18.650;2023-06-10T07:25:24;10.90;;;7.00;;
47483;SDS011;54076;50.322;18.650;2023-06-10T07:30:25;10.80;;;6.40;;
47483;SDS011;54076;50.322;18.650;2023-06-10T07:35:26;11.20;;;6.60;;
47483;SDS011;54076;50.322;18.650;2023-06-10T07:40:27;11.20;;;6.40;;
47483;SDS011;54076;50.322;18.650;2023-06-10T07:45:28;9.50;;;6.20;;
47483;SDS011;54076;50.322;18.650;2023-06-10T07:50:29;10.30;;;6.30;;
47483;SDS011;54076;50.322;18.650;2023-06-10T07:55:30;12.70;;;6.20;;
47483;SDS011;54076;50.322;18.650;2023-06-10T08:00:31;10.60;;;6.20;;
47483;SDS011;54076;50.322;18.650;2023-06-10T08:05:32;12.30;;;6.70;;
47483;SDS011;54076;50.322;18.650;2023-06-10T08:10:33;10.80;;;6.40;;
47483;SDS011;54076;50.322;18.650;2023-06-10T08:15:34;9.20;;;5.70;;
47483;SDS011;54076;50.322;18.650;2023-06-10T08:20:35;9.80;;;5.30;;
47483;SDS011;54076;50.322;18.650;2023-06-10T08:25:36;9.40;;;5.90;;
47483;SDS011;54076;50.322;18.650;2023-06-10T08:30:37;10.80;;;5.90;;
47483;SDS011;54076;50.322;18.650;2023-06-10T08:35:38;8.80;;;5.60;;
47483;SDS011;54076;50.322;18.650;2023-06-10T08:40:39;10.50;;;5.30;;
47483;SDS011;54076;50.322;18.650;2023-06-10T08:45:40;9.80;;;5.30;;
47483;SDS011;54076;50.322;18.650;2023-06-10T08:50:43;8.70;;;5.80;;
47483;SDS011;54076;50.322;18.650;2023-06-10T08:55:49;8.40;;;5.20;;
47483;SDS011;54076;50.322;18.650;2023-06-10T09:00:52;10.80;;;5.20;;
47483;SDS011;54076;50.322;18.650;2023-06-10T09:05:54;9.50;;;5.30;;
47483;SDS011;54076;50.322;18.650;2023-06-10T09:10:57;9.30;;;5.00;;
47483;SDS011;54076;50.322;18.650;2023-06-10T09:15:58;9.70;;;5.50;;
47483;SDS011;54076;50.322;18.650;2023-06-10T09:21:01;9.60;;;5.50;;
47483;SDS011;54076;50.322;18.650;2023-06-10T09:26:02;10.40;;;5.60;;
47483;SDS011;54076;50.322;18.650;2023-06-10T09:31:09;8.50;;;5.50;;
47483;SDS011;54076;50.322;18.650;2023-06-10T09:36:10;10.20;;;6.10;;
47483;SDS011;54076;50.322;18.650;2023-06-10T09:41:12;8.70;;;5.50;;
47483;SDS011;54076;50.322;18.650;2023-06-10T09:46:16;10.90;;;6.10;;
47483;SDS011;54076;50.322;18.650;2023-06-10T09:51:18;9.30;;;5.80;;
47483;SDS011;54076;50.322;18.650;2023-06-10T09:56:19;11.40;;;5.40;;
47483;SDS011;54076;50.322;18.650;2023-06-10T10:01:21;10.00;;;5.50;;
47483;SDS011;54076;50.322;18.650;2023-06-10T10:06:22;12.00;;;5.30;;
47483;SDS011;54076;50.322;18.650;2023-06-10T10:11:24;7.90;;;5.00;;
47483;SDS011;54076;50.322;18.650;2023-06-10T10:16:40;10.30;;;5.40;;
47483;SDS011;54076;50.322;18.650;2023-06-10T10:21:44;7.70;;;4.80;;
47483;SDS011;54076;50.322;18.650;2023-06-10T10:26:54;8.00;;;4.60;;
47483;SDS011;54076;50.322;18.650;2023-06-10T10:32:00;9.70;;;4.60;;
47483;SDS011;54076;50.322;18.650;2023-06-10T10:37:02;6.70;;;4.30;;
47483;SDS011;54076;50.322;18.650;2023-06-10T10:42:04;7.10;;;4.00;;
47483;SDS011;54076;50.322;18.650;2023-06-10T10:47:10;8.10;;;4.30;;
47483;SDS011;54076;50.322;18.650;2023-06-10T10:52:12;9.10;;;4.60;;
47483;SDS011;54076;50.322;18.650;2023-06-10T10:57:18;7.70;;;4.20;;
47483;SDS011;54076;50.322;18.650;2023-06-10T11:02:34;8.80;;;4.40;;
47483;SDS011;54076;50.322;18.650;2023-06-10T11:07:55;7.40;;;4.50;;
47483;SDS011;54076;50.322;18.650;2023-06-10T11:12:57;7.30;;;4.00;;
47483;SDS011;54076;50.322;18.650;2023-06-10T11:18:08;8.10;;;3.60;;
47483;SDS011;54076;50.322;18.650;2023-06-10T11:28:28;7.10;;;4.10;;
47483;SDS011;54076;50.322;18.650;2023-06-10T11:33:30;7.50;;;4.10;;
47483;SDS011;54076;50.322;18.650;2023-06-10T11:38:32;6.30;;;3.90;;
47483;SDS011;54076;50.322;18.650;2023-06-10T11:43:33;7.40;;;4.40;;
47483;SDS011;54076;50.322;18.650;2023-06-10T11:48:35;7.20;;;3.90;;
47483;SDS011;54076;50.322;18.650;2023-06-10T11:53:36;8.00;;;4.20;;
47483;SDS011;54076;50.322;18.650;2023-06-10T11:58:37;7.40;;;4.60;;
47483;SDS011;54076;50.322;18.650;2023-06-10T12:03:44;6.60;;;4.10;;
47483;SDS011;54076;50.322;18.650;2023-06-10T12:08:45;8.60;;;4.20;;
47483;SDS011;54076;50.322;18.650;2023-06-10T12:13:47;8.20;;;4.30;;
47483;SDS011;54076;50.322;18.650;2023-06-10T12:18:49;8.60;;;4.60;;
47483;SDS011;54076;50.322;18.650;2023-06-10T12:24:10;7.30;;;4.00;;
47483;SDS011;54076;50.322;18.650;2023-06-10T12:29:24;8.10;;;4.60;;
47483;SDS011;54076;50.322;18.650;2023-06-10T12:39:38;7.60;;;5.10;;
47483;SDS011;54076;50.322;18.650;2023-06-10T12:44:39;8.40;;;4.90;;
47483;SDS011;54076;50.322;18.650;2023-06-10T12:49:41;8.60;;;5.20;;
47483;SDS011;54076;50.322;18.650;2023-06-10T12:54:42;9.30;;;4.40;;
47483;SDS011;54076;50.322;18.650;2023-06-10T12:59:43;6.60;;;4.60;;
47483;SDS011;54076;50.322;18.650;2023-06-10T13:04:50;9.00;;;5.10;;
47483;SDS011;54076;50.322;18.650;2023-06-10T13:09:51;7.70;;;4.90;;
47483;SDS011;54076;50.322;18.650;2023-06-10T13:14:52;8.90;;;5.60;;
47483;SDS011;54076;50.322;18.650;2023-06-10T13:19:54;13.90;;;6.30;;
47483;SDS011;54076;50.322;18.650;2023-06-10T13:24:55;9.40;;;4.70;;
47483;SDS011;54076;50.322;18.650;2023-06-10T13:29:57;7.80;;;5.20;;
47483;SDS011;54076;50.322;18.650;2023-06-10T13:34:58;7.70;;;4.40;;
47483;SDS011;54076;50.322;18.650;2023-06-10T13:40:00;7.00;;;4.70;;
47483;SDS011;54076;50.322;18.650;2023-06-10T13:45:02;10.40;;;4.70;;
47483;SDS011;54076;50.322;18.650;2023-06-10T13:50:05;7.80;;;4.90;;
47483;SDS011;54076;50.322;18.650;2023-06-10T13:55:07;8.20;;;5.20;;
47483;SDS011;54076;50.322;18.650;2023-06-10T14:00:09;8.30;;;5.10;;
47483;SDS011;54076;50.322;18.650;2023-06-10T14:05:14;8.30;;;4.90;;
47483;SDS011;54076;50.322;18.650;2023-06-10T14:10:15;7.90;;;4.90;;
47483;SDS011;54076;50.322;18.650;2023-06-10T14:15:16;7.80;;;5.20;;
47483;SDS011;54076;50.322;18.650;2023-06-10T14:20:17;10.20;;;5.50;;
47483;SDS011;54076;50.322;18.650;2023-06-10T14:25:18;13.00;;;6.30;;
47483;SDS011;54076;50.322;18.650;2023-06-10T14:30:19;10.50;;;5.20;;
47483;SDS011;54076;50.322;18.650;2023-06-10T14:35:21;11.10;;;5.70;;
47483;SDS011;54076;50.322;18.650;2023-06-10T14:40:22;13.10;;;6.20;;
47483;SDS011;54076;50.322;18.650;2023-06-10T14:45:25;12.00;;;6.60;;
47483;SDS011;54076;50.322;18.650;2023-06-10T14:50:26;14.00;;;6.70;;
47483;SDS011;54076;50.322;18.650;2023-06-10T14:55:27;10.00;;;5.80;;
47483;SDS011;54076;50.322;18.650;2023-06-10T15:00:28;9.30;;;5.20;;
47483;SDS011;54076;50.322;18.650;2023-06-10T15:05:29;11.20;;;5.10;;
47483;SDS011;54076;50.322;18.650;2023-06-10T15:10:30;9.40;;;5.30;;
47483;SDS011;54076;50.322;18.650;2023-06-10T15:15:31;8.00;;;4.50;;
47483;SDS011;54076;50.322;18.650;2023-06-10T15:20:32;8.80;;;5.00;;
47483;SDS011;54076;50.322;18.650;2023-06-10T15:25:33;7.30;;;4.60;;
47483;SDS011;54076;50.322;18.650;2023-06-10T15:30:34;7.90;;;4.50;;
47483;SDS011;54076;50.322;18.650;2023-06-10T15:35:37;9.30;;;5.70;;
47483;SDS011;54076;50.322;18.650;2023-06-10T15:40:40;8.30;;;5.30;;
47483;SDS011;54076;50.322;18.650;2023-06-10T15:45:42;8.10;;;5.00;;
47483;SDS011;54076;50.322;18.650;2023-06-10T15:50:43;7.90;;;4.80;;
47483;SDS011;54076;50.322;18.650;2023-06-10T15:55:45;8.00;;;4.60;;
47483;SDS011;54076;50.322;18.650;2023-06-10T16:00:46;9.30;;;5.00;;
47483;SDS011;54076;50.322;18.650;2023-06-10T16:05:47;8.20;;;4.90;;
47483;SDS011;54076;50.322;18.650;2023-06-10T16:10:48;8.80;;;5.40;;
47483;SDS011;54076;50.322;18.650;2023-06-10T16:15:49;10.30;;;6.30;;
47483;SDS011;54076;50.322;18.650;2023-06-10T16:20:50;11.00;;;5.20;;
47483;SDS011;54076;50.322;18.650;2023-06-10T16:25:51;8.70;;;5.90;;
47483;SDS011;54076;50.322;18.650;2023-06-10T16:30:52;9.70;;;5.90;;
47483;SDS011;54076;50.322;18.650;2023-06-10T16:35:53;9.00;;;6.00;;
47483;SDS011;54076;50.322;18.650;2023-06-10T16:40:55;9.00;;;5.70;;
47483;SDS011;54076;50.322;18.650;2023-06-10T16:45:57;9.30;;;6.00;;
47483;SDS011;54076;50.322;18.650;2023-06-10T16:50:59;13.20;;;8.70;;
47483;SDS011;54076;50.322;18.650;2023-06-10T16:55:59;11.30;;;5.90;;
47483;SDS011;54076;50.322;18.650;2023-06-10T17:01:07;11.20;;;6.10;;
47483;SDS011;54076;50.322;18.650;2023-06-10T17:06:09;8.90;;;5.00;;
47483;SDS011;54076;50.322;18.650;2023-06-10T17:11:11;7.10;;;4.20;;
47483;SDS011;54076;50.322;18.650;2023-06-10T17:16:12;11.00;;;4.30;;
47483;SDS011;54076;50.322;18.650;2023-06-10T17:21:13;9.00;;;4.30;;
47483;SDS011;54076;50.322;18.650;2023-06-10T17:26:14;7.20;;;3.80;;
47483;SDS011;54076;50.322;18.650;2023-06-10T17:31:15;5.90;;;3.60;;
47483;SDS011;54076;50.322;18.650;2023-06-10T17:36:16;7.90;;;4.20;;
47483;SDS011;54076;50.322;18.650;2023-06-10T17:41:18;6.20;;;3.90;;
47483;SDS011;54076;50.322;18.650;2023-06-10T17:46:19;8.50;;;4.40;;
47483;SDS011;54076;50.322;18.650;2023-06-10T17:51:20;7.60;;;4.20;;
47483;SDS011;54076;50.322;18.650;2023-06-10T17:56:21;8.80;;;4.10;;
47483;SDS011;54076;50.322;18.650;2023-06-10T18:01:22;8.10;;;4.30;;
47483;SDS011;54076;50.322;18.650;2023-06-10T18:06:23;9.50;;;5.20;;
47483;SDS011;54076;50.322;18.650;2023-06-10T18:11:24;8.70;;;4.70;;
47483;SDS011;54076;50.322;18.650;2023-06-10T18:16:26;8.00;;;4.40;;
47483;SDS011;54076;50.322;18.650;2023-06-10T18:21:29;8.00;;;4.80;;
47483;SDS011;54076;50.322;18.650;2023-06-10T18:26:30;12.60;;;6.00;;
47483;SDS011;54076;50.322;18.650;2023-06-10T18:31:31;9.00;;;5.50;;
47483;SDS011;54076;50.322;18.650;2023-06-10T18:36:32;10.10;;;5.60;;
47483;SDS011;54076;50.322;18.650;2023-06-10T18:41:33;9.10;;;5.30;;
47483;SDS011;54076;50.322;18.650;2023-06-10T18:46:34;7.70;;;5.20;;
47483;SDS011;54076;50.322;18.650;2023-06-10T18:51:35;9.50;;;4.90;;
47483;SDS011;54076;50.322;18.650;2023-06-10T18:56:36;9.70;;;4.90;;
47483;SDS011;54076;50.322;18.650;2023-06-10T19:01:37;10.20;;;5.30;;
47483;SDS011;54076;50.322;18.650;2023-06-10T19:06:38;8.10;;;5.20;;
47483;SDS011;54076;50.322;18.650;2023-06-10T19:11:39;11.20;;;6.80;;
47483;SDS011;54076;50.322;18.650;2023-06-10T19:16:40;9.00;;;5.30;;
47483;SDS011;54076;50.322;18.650;2023-06-10T19:21:41;8.30;;;5.30;;
47483;SDS011;54076;50.322;18.650;2023-06-10T19:26:42;9.60;;;5.90;;
47483;SDS011;54076;50.322;18.650;2023-06-10T19:31:43;9.40;;;5.70;;
47483;SDS011;54076;50.322;18.650;2023-06-10T19:36:44;8.60;;;5.50;;
47483;SDS011;54076;50.322;18.650;2023-06-10T19:41:45;10.50;;;5.50;;
47483;SDS011;54076;50.322;18.650;2023-06-10T19:46:46;10.90;;;5.70;;
47483;SDS011;54076;50.322;18.650;2023-06-10T19:51:48;9.80;;;4.90;;
47483;SDS011;54076;50.322;18.650;2023-06-10T19:56:50;7.00;;;4.20;;
47483;SDS011;54076;50.322;18.650;2023-06-10T20:01:51;8.80;;;5.20;;
47483;SDS011;54076;50.322;18.650;2023-06-10T20:06:52;8.30;;;4.70;;
47483;SDS011;54076;50.322;18.650;2023-06-10T20:11:53;10.50;;;4.90;;
47483;SDS011;54076;50.322;18.650;2023-06-10T20:16:54;7.80;;;4.50;;
47483;SDS011;54076;50.322;18.650;2023-06-10T20:21:55;9.20;;;4.70;;
47483;SDS011;54076;50.322;18.650;2023-06-10T20:26:56;10.80;;;5.30;;
47483;SDS011;54076;50.322;18.650;2023-06-10T20:31:58;8.50;;;4.50;;
47483;SDS011;54076;50.322;18.650;2023-06-10T20:36:59;9.10;;;5.10;;
47483;SDS011;54076;50.322;18.650;2023-06-10T20:42:00;7.50;;;4.70;;
47483;SDS011;54076;50.322;18.650;2023-06-10T20:47:01;7.30;;;4.40;;
47483;SDS011;54076;50.322;18.650;2023-06-10T20:52:02;8.10;;;4.80;;
47483;SDS011;54076;50.322;18.650;2023-06-10T20:57:04;26.60;;;5.60;;
47483;SDS011;54076;50.322;18.650;2023-06-10T21:02:06;10.70;;;4.90;;
47483;SDS011;54076;50.322;18.650;2023-06-10T21:07:07;8.60;;;4.80;;
47483;SDS011;54076;50.322;18.650;2023-06-10T21:12:08;10.50;;;5.10;;
47483;SDS011;54076;50.322;18.650;2023-06-10T21:17:10;7.60;;;4.40;;
47483;SDS011;54076;50.322;18.650;2023-06-10T21:22:12;10.20;;;5.10;;
47483;SDS011;54076;50.322;18.650;2023-06-10T21:27:13;9.90;;;5.10;;
47483;SDS011;54076;50.322;18.650;2023-06-10T21:32:16;9.40;;;5.00;;
47483;SDS011;54076;50.322;18.650;2023-06-10T21:37:17;7.90;;;4.90;;
47483;SDS011;54076;50.322;18.650;2023-06-10T21:42:18;8.70;;;5.20;;
47483;SDS011;54076;50.322;18.650;2023-06-10T21:47:19;9.00;;;4.90;;
47483;SDS011;54076;50.322;18.650;2023-06-10T21:52:20;9.10;;;5.20;;
47483;SDS011;54076;50.322;18.650;2023-06-10T21:57:22;8.10;;;5.00;;
47483;SDS011;54076;50.322;18.650;2023-06-10T22:02:24;8.70;;;5.00;;
47483;SDS011;54076;50.322;18.650;2023-06-10T22:07:26;9.50;;;5.20;;
47483;SDS011;54076;50.322;18.650;2023-06-10T22:12:27;8.20;;;4.90;;
47483;SDS011;54076;50.322;18.650;2023-06-10T22:17:28;9.70;;;5.40;;
47483;SDS011;54076;50.322;18.650;2023-06-10T22:22:29;9.40;;;5.60;;
47483;SDS011;54076;50.322;18.650;2023-06-10T22:27:30;9.60;;;5.30;;
47483;SDS011;54076;50.322;18.650;2023-06-10T22:32:31;9.10;;;5.40;;
47483;SDS011;54076;50.322;18.650;2023-06-10T22:37:33;9.40;;;5.10;;
47483;SDS011;54076;50.322;18.650;2023-06-10T22:42:35;11.30;;;5.80;;
47483;SDS011;54076;50.322;18.650;2023-06-10T22:47:36;8.60;;;5.40;;
47483;SDS011;54076;50.322;18.650;2023-06-10T22:52:37;10.60;;;5.80;;
47483;SDS011;54076;50.322;18.650;2023-06-10T22:57:38;10.30;;;5.50;;
47483;SDS011;54076;50.322;18.650;2023-06-10T23:02:39;11.30;;;5.70;;
47483;SDS011;54076;50.322;18.650;2023-06-10T23:07:40;9.20;;;5.50;;
47483;SDS011;54076;50.322;18.650;2023-06-10T23:12:41;9.30;;;5.40;;
47483;SDS011;54076;50.322;18.650;2023-06-10T23:17:42;9.90;;;5.30;;
47483;SDS011;54076;50.322;18.650;2023-06-10T23:22:45;10.60;;;5.60;;
47483;SDS011;54076;50.322;18.650;2023-06-10T23:27:50;9.20;;;5.20;;
47483;SDS011;54076;50.322;18.650;2023-06-10T23:32:52;7.90;;;5.30;;
47483;SDS011;54076;50.322;18.650;2023-06-10T23:37:53;12.80;;;5.20;;
47483;SDS011;54076;50.322;18.650;2023-06-10T23:42:53;10.60;;;5.60;;
47483;SDS011;54076;50.322;18.650;2023-06-10T23:47:54;8.50;;;5.20;;
47483;SDS011;54076;50.322;18.650;2023-06-10T23:52:56;9.50;;;4.90;;
47483;SDS011;54076;50.322;18.650;2023-06-10T23:57:56;9.40;;;5.80;;
